Time;durP1;ratioP1;P1;durP2;ratioP2;P2;SDS_P1;SDS_P2;PMS_P1;PMS_P2;Temp;Humidity;BMP_temperature;BMP_pressure;BME280_temperature;BME280_humidity;BME280_pressure;Samples;Min_cycle;Max_cycle;Signal;HPM_P1;HPM_P2
2022/01/22 00:01:52;;;;;;;15.77;7.60;;;;;;;2.69;85.34;102075.84;5076457;28;20407;-84
2022/01/22 00:04:17;;;;;;;18.25;8.02;;;;;;;2.78;84.69;102080.28;5074292;28;20476;-84
2022/01/22 00:06:42;;;;;;;15.07;6.73;;;;;;;2.66;85.12;102073.47;5071782;28;20398;-84
2022/01/22 00:09:08;;;;;;;16.83;7.80;;;;;;;2.66;85.33;102066.28;5088653;28;20414;-84
2022/01/22 00:11:37;;;;;;;14.80;7.37;;;;;;;2.73;85.05;102072.72;5076213;28;20511;-85
2022/01/22 00:16:47;;;;;;;12.75;7.22;;;;;;;2.74;84.97;102068.19;5089225;28;20405;-84
2022/01/22 00:19:13;;;;;;;12.90;7.57;;;;;;;2.63;84.75;102070.09;5086890;28;20774;-84
2022/01/22 00:21:38;;;;;;;16.92;7.72;;;;;;;2.63;85.37;102067.41;5072564;28;20894;-85
2022/01/22 00:24:07;;;;;;;13.75;7.38;;;;;;;2.63;85.20;102069.28;5086714;28;20393;-84
2022/01/22 00:26:32;;;;;;;16.13;7.38;;;;;;;2.72;85.13;102073.69;5076504;28;20450;-84
2022/01/22 00:28:57;;;;;;;16.47;7.00;;;;;;;2.59;85.47;102078.59;5089650;28;20870;-85
2022/01/22 00:31:23;;;;;;;15.30;7.13;;;;;;;2.59;85.30;102070.59;5085296;28;20390;-85
2022/01/22 00:33:48;;;;;;;13.07;6.65;;;;;;;2.60;85.36;102075.75;5073105;28;20797;-84
2022/01/22 00:36:13;;;;;;;13.93;6.13;;;;;;;2.69;85.42;102068.66;5088316;28;20386;-84
2022/01/22 00:38:39;;;;;;;13.67;6.57;;;;;;;2.67;84.89;102062.59;5076299;28;20505;-84
2022/01/22 00:41:04;;;;;;;12.97;6.53;;;;;;;2.69;84.99;102063.31;5086298;28;20419;-85
2022/01/22 00:43:29;;;;;;;13.53;6.80;;;;;;;2.69;84.67;102055.28;5083046;28;20398;-84
2022/01/22 00:45:55;;;;;;;17.53;6.80;;;;;;;2.58;85.70;102056.34;5079024;28;20811;-84
2022/01/22 00:48:20;;;;;;;20.67;6.80;;;;;;;2.55;85.96;102069.19;5077194;28;20792;-84
2022/01/22 00:50:47;;;;;;;12.55;7.53;;;;;;;2.67;85.49;102065.28;5072539;28;20387;-84
2022/01/22 00:53:12;;;;;;;16.17;7.63;;;;;;;2.48;85.73;102060.94;5083231;28;20412;-84
2022/01/22 00:55:38;;;;;;;15.73;7.10;;;;;;;2.51;85.91;102054.44;5078261;28;20399;-84
2022/01/22 00:58:03;;;;;;;13.35;7.45;;;;;;;2.60;85.82;102059.69;5071355;28;20407;-85
2022/01/22 01:00:28;;;;;;;18.20;9.33;;;;;;;2.53;85.89;102057.81;5074580;28;20415;-85
2022/01/22 01:02:54;;;;;;;17.73;7.80;;;;;;;2.59;85.64;102055.38;5079870;28;20438;-84
2022/01/22 01:05:19;;;;;;;20.07;8.40;;;;;;;2.60;85.44;102049.00;5080886;28;20434;-84
2022/01/22 01:07:44;;;;;;;15.75;7.95;;;;;;;2.62;85.10;102054.22;5088762;28;20406;-84
2022/01/22 01:10:13;;;;;;;14.43;7.33;;;;;;;2.52;85.38;102054.28;5071543;28;20391;-85
2022/01/22 01:12:40;;;;;;;14.85;8.07;;;;;;;2.58;85.82;102045.66;5081122;28;20861;-85
2022/01/22 01:34:03;;;;;;;18.73;8.43;;;;;;;2.68;85.47;102055.41;5077251;28;20439;-85
2022/01/22 01:36:28;;;;;;;16.95;8.43;;;;;;;2.70;84.98;102058.81;5082468;28;20404;-84
2022/01/22 01:38:55;;;;;;;14.30;8.93;;;;;;;2.68;84.78;102061.63;5084768;28;20444;-84
2022/01/22 01:41:39;;;;;;;21.70;8.75;;;;;;;2.58;85.15;102060.84;5078209;28;20489;-84
2022/01/22 01:44:05;;;;;;;17.90;8.73;;;;;;;2.58;85.67;102052.81;5080294;28;20425;-85
2022/01/22 01:46:32;;;;;;;18.40;9.65;;;;;;;2.66;85.33;102052.06;5080637;28;20419;-84
2022/01/22 01:48:58;;;;;;;16.48;8.68;;;;;;;2.66;85.11;102057.41;5071270;28;20812;-84
2022/01/22 01:51:27;;;;;;;19.02;9.52;;;;;;;2.68;85.30;102061.63;5074008;28;20425;-84
2022/01/22 01:54:01;;;;;;;17.15;9.20;;;;;;;2.63;85.28;102060.41;5083470;28;20391;-84
2022/01/22 01:59:14;;;;;;;15.85;8.95;;;;;;;2.59;85.71;102055.38;5071280;28;20466;-85
2022/01/22 02:01:39;;;;;;;17.58;10.27;;;;;;;2.46;86.37;102060.25;5107235;27;20445;-84
2022/01/22 02:04:05;;;;;;;21.17;10.05;;;;;;;2.51;86.54;102063.31;5081339;28;20894;-84
2022/01/22 02:06:31;;;;;;;17.05;9.75;;;;;;;2.63;85.71;102063.09;5071711;28;20384;-85
2022/01/22 02:08:56;;;;;;;20.47;9.63;;;;;;;2.70;85.70;102070.31;5078691;28;20935;-84
2022/01/22 02:11:24;;;;;;;18.23;9.83;;;;;;;2.70;85.15;102070.31;5071996;28;20759;-84
2022/01/22 02:14:06;;;;;;;17.77;10.40;;;;;;;2.60;85.26;102070.41;5079512;28;20493;-84
2022/01/22 02:24:51;;;;;;;20.75;10.77;;;;;;;2.57;85.73;102061.84;5091308;28;20405;-84
2022/01/22 02:27:17;;;;;;;19.15;9.40;;;;;;;2.61;85.53;102058.72;5083179;28;20474;-85
2022/01/22 02:29:43;;;;;;;21.00;9.88;;;;;;;2.51;86.11;102052.59;5092325;28;20400;-85
2022/01/22 02:34:49;;;;;;;23.23;10.40;;;;;;;2.47;86.49;102039.72;5074413;28;20401;-85
2022/01/22 02:37:17;;;;;;;22.20;11.25;;;;;;;2.50;86.48;102050.91;5083329;28;20394;-84
2022/01/22 02:39:45;;;;;;;18.73;10.43;;;;;;;2.63;86.06;102051.38;5079436;28;20504;-84
2022/01/22 02:42:11;;;;;;;18.70;10.15;;;;;;;2.63;85.69;102049.69;5074871;28;20395;-84
2022/01/22 02:44:46;;;;;;;19.00;10.50;;;;;;;2.67;85.73;102046.53;5070129;28;20391;-85
2022/01/22 02:47:13;;;;;;;19.90;10.73;;;;;;;2.66;85.64;102042.22;5081105;28;20378;-84
2022/01/22 02:49:39;;;;;;;22.65;10.65;;;;;;;2.61;85.73;102041.81;5073942;28;20400;-84
2022/01/22 02:52:07;;;;;;;19.17;10.93;;;;;;;2.55;85.91;102045.97;5071246;28;20456;-84
2022/01/22 02:54:33;;;;;;;21.33;11.00;;;;;;;2.54;86.16;102041.59;5083745;28;20529;-84
2022/01/22 02:56:58;;;;;;;18.95;11.20;;;;;;;2.61;85.79;102047.16;5075883;28;20422;-84
2022/01/22 02:59:24;;;;;;;22.40;10.93;;;;;;;2.65;85.78;102045.03;5076238;28;20920;-84
2022/01/22 03:01:50;;;;;;;20.23;11.90;;;;;;;2.68;85.51;102042.03;5088294;28;20417;-84
2022/01/22 03:04:16;;;;;;;24.30;10.35;;;;;;;2.73;85.26;102053.97;5075099;28;20402;-84
2022/01/22 03:06:42;;;;;;;22.50;10.93;;;;;;;2.73;85.06;102050.47;5078854;28;21037;-84
2022/01/22 03:09:10;;;;;;;22.45;10.80;;;;;;;2.67;85.20;102059.13;5081887;28;20402;-85
2022/01/22 03:11:44;;;;;;;20.48;10.63;;;;;;;2.67;85.57;102046.53;5084576;28;20420;-84
2022/01/22 03:17:46;;;;;;;20.38;10.50;;;;;;;2.67;85.33;102043.06;5080211;28;20781;-85
2022/01/22 03:27:25;;;;;;;19.50;10.57;;;;;;;2.67;85.50;102038.50;5087391;28;20397;-84
2022/01/22 03:29:51;;;;;;;31.52;17.55;;;;;;;2.63;84.70;102036.31;5083136;28;20407;-84
2022/01/22 03:32:17;;;;;;;17.10;9.57;;;;;;;2.63;85.19;102034.50;5069755;28;20724;-84
2022/01/22 03:34:56;;;;;;;16.77;9.00;;;;;;;2.72;84.89;102038.91;5070633;28;20411;-84
2022/01/22 03:37:24;;;;;;;19.63;9.25;;;;;;;2.69;85.00;102041.91;5087300;28;20465;-84
2022/01/22 03:39:50;;;;;;;18.80;9.32;;;;;;;2.71;84.61;102041.72;5080791;28;20828;-84
2022/01/22 03:42:15;;;;;;;19.25;10.00;;;;;;;2.76;84.48;102048.31;5080042;28;20473;-84
2022/01/22 03:44:40;;;;;;;19.33;10.47;;;;;;;2.68;84.55;102050.91;5077976;28;20465;-84
2022/01/22 03:47:06;;;;;;;19.23;10.50;;;;;;;2.64;84.97;102046.84;5086674;28;20417;-84
2022/01/22 03:49:32;;;;;;;18.53;9.43;;;;;;;2.63;85.13;102047.88;5080935;28;20433;-84
2022/01/22 03:51:58;;;;;;;19.08;9.63;;;;;;;2.63;85.27;102051.38;5081242;28;20865;-84
2022/01/22 03:54:23;;;;;;;20.10;10.77;;;;;;;2.68;85.07;102050.06;5089863;28;20485;-84
2022/01/22 03:56:50;;;;;;;19.85;9.88;;;;;;;2.61;85.22;102045.34;5079616;28;20392;-84
2022/01/22 03:59:17;;;;;;;19.30;9.55;;;;;;;2.68;85.09;102047.38;5080509;28;20811;-84
2022/01/22 04:04:13;;;;;;;20.20;10.10;;;;;;;2.59;85.26;102031.28;5084771;28;20791;-84
2022/01/22 04:07:13;;;;;;;16.47;9.10;;;;;;;2.67;85.10;102027.81;5077160;28;20388;-84
2022/01/22 04:09:30;;;;;;;19.42;10.07;;;;;;;2.68;85.01;102032.16;5080181;28;20459;-84
2022/01/22 04:11:57;;;;;;;20.48;10.15;;;;;;;2.65;85.02;102021.78;5085897;28;20402;-83
2022/01/22 04:14:27;;;;;;;20.88;10.30;;;;;;;2.64;85.26;102036.16;5072583;28;20567;-84
2022/01/22 04:24:57;;;;;;;21.90;11.85;;;;;;;2.71;84.75;102031.88;5074448;28;20418;-84
2022/01/22 04:27:27;;;;;;;19.77;11.20;;;;;;;2.75;84.64;102032.41;5080578;28;20489;-84
2022/01/22 04:29:54;;;;;;;22.47;10.97;;;;;;;2.79;84.39;102033.78;5078118;28;20489;-84
2022/01/22 04:32:20;;;;;;;19.38;11.60;;;;;;;2.80;84.27;102038.94;5088410;28;20386;-84
2022/01/22 04:34:46;;;;;;;22.07;10.97;;;;;;;2.73;84.75;102032.56;5079124;28;20752;-84
2022/01/22 04:37:12;;;;;;;25.92;11.45;;;;;;;2.81;84.66;102024.56;5085512;28;20398;-84
2022/01/22 04:39:37;;;;;;;20.13;11.07;;;;;;;2.90;83.97;102018.28;5084530;28;20889;-84
2022/01/22 04:42:03;;;;;;;22.10;11.63;;;;;;;2.90;83.89;102023.63;5075277;28;20431;-84
2022/01/22 04:44:34;;;;;;;21.63;10.87;;;;;;;2.89;83.82;102026.47;5087011;28;20904;-84
2022/01/22 04:55:12;;;;;;;22.98;12.45;;;;;;;2.95;84.16;102033.88;5050462;28;20824;-84
2022/01/22 04:57:46;;;;;;;20.43;12.27;;;;;;;2.97;83.48;102034.56;5087010;28;20382;-84
2022/01/22 05:00:14;;;;;;;20.67;11.48;;;;;;;2.99;83.03;102033.41;5074997;28;20473;-84
2022/01/22 05:02:39;;;;;;;18.52;11.82;;;;;;;3.01;83.33;102035.94;5091024;28;20390;-84
2022/01/22 05:05:06;;;;;;;23.33;11.70;;;;;;;3.02;83.12;102029.59;5081200;28;20399;-83
2022/01/22 05:07:31;;;;;;;17.13;10.40;;;;;;;3.03;83.29;102031.28;5071720;28;20890;-84
2022/01/22 05:09:58;;;;;;;26.43;13.33;;;;;;;2.96;83.34;102023.03;5074172;28;20479;-84
2022/01/22 05:12:23;;;;;;;23.50;12.15;;;;;;;2.96;83.57;102024.88;5082386;28;20400;-83
2022/01/22 05:14:48;;;;;;;22.07;12.60;;;;;;;2.97;83.38;102027.38;5081977;28;20529;-83
2022/01/22 05:17:14;;;;;;;24.13;13.23;;;;;;;2.91;83.66;102038.72;5086776;28;20413;-83
2022/01/22 05:22:23;;;;;;;24.05;12.40;;;;;;;2.89;83.89;102043.38;5081554;28;20414;-84
2022/01/22 05:24:53;;;;;;;24.23;12.60;;;;;;;2.90;83.90;102052.25;5080201;28;20388;-84
2022/01/22 05:30:04;;;;;;;21.88;12.23;;;;;;;2.89;83.99;102053.25;5072148;28;20418;-84
2022/01/22 05:32:53;;;;;;;25.50;12.73;;;;;;;2.86;84.35;102062.44;5083047;28;20402;-84
2022/01/22 05:36:57;;;;;;;20.00;10.88;;;;;;;2.88;84.02;102059.59;5088952;28;20406;-84
2022/01/22 05:38:20;;;;;;;21.95;12.75;;;;;;;2.94;83.93;102070.53;5072704;28;20882;-84
2022/01/22 05:40:45;;;;;;;21.30;11.77;;;;;;;2.99;83.38;102075.44;5104803;28;20423;-83
2022/01/22 05:43:10;;;;;;;24.60;12.90;;;;;;;3.00;83.25;102064.53;5087984;28;20481;-84
2022/01/22 05:45:36;;;;;;;20.03;12.70;;;;;;;3.01;83.36;102071.59;5081355;28;20948;-84
2022/01/22 05:48:01;;;;;;;23.60;12.40;;;;;;;3.03;83.24;102074.13;5076848;28;20400;-83
2022/01/22 05:50:33;;;;;;;26.00;12.80;;;;;;;2.98;83.19;102071.91;5104810;28;20391;-84
2022/01/22 05:53:09;;;;;;;20.20;12.15;;;;;;;2.92;83.82;102074.38;5084754;28;20404;-84
2022/01/22 06:00:43;;;;;;;21.88;13.23;;;;;;;3.00;83.63;102069.06;5087940;28;20781;-83
2022/01/22 06:03:08;;;;;;;23.30;13.10;;;;;;;2.96;83.84;102068.56;5075148;28;20400;-84
2022/01/22 06:05:34;;;;;;;23.50;13.50;;;;;;;3.01;84.04;102076.09;5077913;28;20420;-84
2022/01/22 06:07:59;;;;;;;22.63;13.10;;;;;;;3.05;83.45;102078.31;5080275;28;20392;-84
2022/01/22 06:10:29;;;;;;;22.20;13.30;;;;;;;3.01;83.49;102076.94;5070196;28;20450;-84
2022/01/22 06:13:10;;;;;;;27.67;15.57;;;;;;;2.93;83.90;102068.03;5076462;28;20409;-84
2022/01/22 06:15:36;;;;;;;30.92;16.25;;;;;;;2.90;84.31;102068.31;5071674;28;20458;-84
2022/01/22 06:18:01;;;;;;;27.58;14.45;;;;;;;2.90;84.42;102062.94;5074277;28;20400;-84
2022/01/22 06:20:26;;;;;;;25.93;15.93;;;;;;;2.89;84.19;102061.28;5084535;28;20402;-84
2022/01/22 06:22:52;;;;;;;24.73;14.90;;;;;;;2.99;84.19;102065.56;5074554;28;20488;-84
2022/01/22 06:25:17;;;;;;;24.98;14.88;;;;;;;3.03;83.81;102066.09;5083794;28;20410;-84
2022/01/22 06:27:42;;;;;;;27.13;14.80;;;;;;;3.01;83.87;102065.38;5071733;28;20883;-84
2022/01/22 06:30:09;;;;;;;25.30;14.23;;;;;;;3.04;84.01;102070.44;5057752;28;20457;-84
2022/01/22 06:32:34;;;;;;;24.50;14.70;;;;;;;3.07;83.99;102078.16;5114015;27;20398;-83
2022/01/22 06:34:59;;;;;;;29.17;14.83;;;;;;;3.04;83.84;102081.13;5086788;28;20796;-84
2022/01/22 06:37:25;;;;;;;27.60;14.27;;;;;;;3.03;84.11;102087.50;5089359;28;20447;-84
2022/01/22 06:42:30;;;;;;;24.17;14.40;;;;;;;3.06;83.92;102087.19;5075100;28;20493;-83
2022/01/22 06:44:57;;;;;;;25.57;14.87;;;;;;;3.12;83.82;102081.22;5084374;28;20395;-84
2022/01/22 06:47:22;;;;;;;30.13;15.67;;;;;;;3.13;83.42;102086.41;5085741;28;20445;-84
2022/01/22 06:49:48;;;;;;;24.70;15.20;;;;;;;3.11;83.69;102075.00;5074899;28;20674;-84
2022/01/22 06:52:13;;;;;;;32.63;16.10;;;;;;;3.14;83.47;102084.56;5071340;28;20402;-84
2022/01/22 06:54:39;;;;;;;33.90;18.17;;;;;;;3.14;83.75;102092.59;5071507;28;20441;-84
2022/01/22 06:57:05;;;;;;;31.13;16.77;;;;;;;3.10;83.96;102102.78;5118843;28;20405;-84
2022/01/22 06:59:30;;;;;;;31.53;17.23;;;;;;;3.09;84.06;102101.13;5077414;28;20396;-84
2022/01/22 07:01:56;;;;;;;32.70;17.80;;;;;;;3.07;84.38;102102.25;5083025;28;20827;-83
2022/01/22 07:04:22;;;;;;;32.80;16.93;;;;;;;3.11;84.20;102107.16;5079146;28;20396;-85
2022/01/22 07:06:47;;;;;;;27.83;15.80;;;;;;;3.09;84.20;102116.34;5081634;28;20529;-84
2022/01/22 07:09:12;;;;;;;25.03;14.87;;;;;;;3.07;84.33;102108.44;5071369;28;20718;-84
2022/01/22 07:11:38;;;;;;;23.80;16.03;;;;;;;3.12;84.28;102108.00;5080507;28;20437;-85
2022/01/22 07:14:03;;;;;;;23.95;14.52;;;;;;;3.16;84.26;102119.25;5072424;28;20758;-84
2022/01/22 07:16:29;;;;;;;29.50;15.97;;;;;;;3.08;84.16;102110.16;5072237;28;20408;-83
2022/01/22 07:18:59;;;;;;;40.83;19.90;;;;;;;3.06;84.49;102114.78;5080174;28;20427;-85
2022/01/22 07:21:27;;;;;;;30.73;17.40;;;;;;;3.04;84.70;102115.97;5086726;28;20462;-84
2022/01/22 07:24:39;;;;;;;34.15;18.88;;;;;;;3.08;84.71;102125.38;5080262;28;20402;-83
2022/01/22 07:26:38;;;;;;;34.60;17.83;;;;;;;3.13;84.59;102123.91;5078817;28;20979;-84
2022/01/22 07:29:03;;;;;;;28.90;16.23;;;;;;;3.20;84.35;102133.97;5087944;28;20441;-83
2022/01/22 07:31:28;;;;;;;37.05;18.98;;;;;;;3.18;84.32;102136.00;5081494;28;20492;-83
2022/01/22 07:33:54;;;;;;;47.10;22.00;;;;;;;3.16;84.48;102133.47;5090334;28;20737;-83
2022/01/22 07:36:19;;;;;;;37.17;18.73;;;;;;;3.16;84.56;102136.16;5084937;28;20402;-83
2022/01/22 07:38:45;;;;;;;42.53;21.50;;;;;;;3.18;84.43;102139.50;5076070;28;20402;-82
2022/01/22 07:41:11;;;;;;;34.95;18.30;;;;;;;3.26;83.99;102139.56;5086284;28;20421;-83
2022/01/22 07:43:37;;;;;;;33.27;17.97;;;;;;;3.16;84.50;102130.81;5083623;28;20396;-84
2022/01/22 07:46:04;;;;;;;34.63;19.23;;;;;;;3.16;84.60;102135.31;5074423;28;20798;-83
2022/01/22 07:48:29;;;;;;;32.75;18.40;;;;;;;3.19;84.55;102130.50;5073156;28;20418;-83
2022/01/22 07:50:55;;;;;;;29.30;17.13;;;;;;;3.20;84.65;102125.94;5072552;28;20969;-82
2022/01/22 07:53:20;;;;;;;37.60;17.80;;;;;;;3.27;84.42;102130.53;5075188;28;20423;-84
2022/01/22 07:55:45;;;;;;;26.50;16.47;;;;;;;3.29;84.16;102136.59;5082812;28;20470;-81
2022/01/22 07:58:11;;;;;;;28.03;17.27;;;;;;;3.31;83.92;102137.25;5090939;28;20536;-85
2022/01/22 08:00:37;;;;;;;28.80;15.52;;;;;;;3.34;83.89;102128.91;5091182;28;20410;-84
2022/01/22 08:03:03;;;;;;;27.60;14.87;;;;;;;3.37;83.97;102133.09;5087336;28;20407;-83
2022/01/22 08:05:29;;;;;;;30.02;16.30;;;;;;;3.33;83.69;102132.56;5084719;28;20482;-83
2022/01/22 08:07:54;;;;;;;28.38;15.20;;;;;;;3.40;83.45;102130.97;5082078;28;20398;-81
2022/01/22 08:10:19;;;;;;;28.20;15.83;;;;;;;3.41;83.70;102119.25;5081264;28;20419;-83
2022/01/22 08:12:50;;;;;;;25.50;15.27;;;;;;;3.40;83.70;102130.97;5087979;28;20428;-84
2022/01/22 08:15:16;;;;;;;27.05;15.40;;;;;;;3.40;83.66;102124.75;5079571;28;20448;-85
2022/01/22 08:17:43;;;;;;;30.20;14.95;;;;;;;3.47;83.71;102131.16;5079923;28;20396;-83
2022/01/22 08:20:12;;;;;;;23.83;14.93;;;;;;;3.45;83.56;102134.03;5077887;28;20404;-84
2022/01/22 08:22:37;;;;;;;30.05;15.00;;;;;;;3.50;83.33;102134.38;5079471;28;20396;-85
2022/01/22 08:25:03;;;;;;;25.03;14.90;;;;;;;3.51;83.12;102127.19;5079551;28;20388;-86
2022/01/22 08:29:55;;;;;;;28.67;15.05;;;;;;;3.49;83.45;102147.94;5086404;28;20410;-86
2022/01/22 08:37:39;;;;;;;23.58;14.95;;;;;;;3.68;82.20;102147.72;5081360;28;20883;-84
2022/01/22 08:40:07;;;;;;;32.85;15.77;;;;;;;3.65;82.25;102151.53;5084354;28;20420;-84
2022/01/22 08:42:32;;;;;;;27.48;16.90;;;;;;;3.64;82.38;102159.75;5076736;28;20430;-86
2022/01/22 08:44:57;;;;;;;28.73;15.13;;;;;;;3.63;82.66;102160.75;5083340;28;20452;-86
2022/01/22 08:47:23;;;;;;;27.40;14.73;;;;;;;3.72;82.03;102153.63;5082112;28;20762;-84
2022/01/22 08:49:48;;;;;;;25.27;15.00;;;;;;;3.79;82.02;102157.34;5080992;28;20413;-84
2022/01/22 08:52:15;;;;;;;26.90;15.00;;;;;;;3.83;81.45;102162.22;5087771;28;20411;-83
2022/01/22 08:54:42;;;;;;;19.77;12.75;;;;;;;3.87;81.59;102168.94;5073827;28;20412;-83
2022/01/22 08:57:07;;;;;;;25.42;12.98;;;;;;;3.88;81.25;102159.91;5086348;28;20406;-84
2022/01/22 08:59:33;;;;;;;22.03;13.07;;;;;;;3.88;81.15;102159.91;5082604;28;20397;-85
2022/01/22 09:02:03;;;;;;;26.77;14.93;;;;;;;3.87;81.28;102152.84;5079578;28;20761;-84
2022/01/22 09:04:30;;;;;;;25.10;14.40;;;;;;;3.93;81.27;102160.25;5075635;28;20457;-84
2022/01/22 09:06:58;;;;;;;24.63;14.43;;;;;;;3.97;81.41;102160.78;5079910;28;20475;-83
2022/01/22 09:09:25;;;;;;;23.20;13.95;;;;;;;4.02;81.03;102145.03;5083391;28;20397;-81
2022/01/22 09:11:51;;;;;;;18.77;12.98;;;;;;;4.04;80.92;102140.34;5082228;28;20407;-81
2022/01/22 09:14:18;;;;;;;23.13;12.87;;;;;;;4.09;80.56;102149.59;5079335;28;20392;-82
2022/01/22 09:16:46;;;;;;;20.23;13.25;;;;;;;4.11;80.18;102155.66;5076878;28;20416;-81
2022/01/22 09:19:12;;;;;;;24.60;13.50;;;;;;;4.13;79.95;102158.16;5079497;28;20754;-82
2022/01/22 09:21:44;;;;;;;24.15;12.18;;;;;;;4.19;79.13;102161.03;5083607;28;20413;-81
2022/01/22 09:24:11;;;;;;;21.05;13.18;;;;;;;4.14;79.90;102159.84;5081262;28;20928;-82
2022/01/22 09:26:37;;;;;;;27.13;13.35;;;;;;;4.13;80.26;102163.53;5077932;28;20384;-75
2022/01/22 09:29:04;;;;;;;27.70;14.03;;;;;;;4.01;80.63;102170.19;5080477;28;20895;-81
2022/01/22 09:31:31;;;;;;;21.50;13.73;;;;;;;4.03;80.83;102171.69;5085794;28;20485;-81
2022/01/22 09:33:59;;;;;;;18.98;12.02;;;;;;;4.05;80.50;102171.56;5079586;28;20869;-81
2022/01/22 09:36:26;;;;;;;25.15;12.90;;;;;;;4.06;80.51;102176.75;5085297;28;20399;-81
2022/01/22 09:38:52;;;;;;;21.90;12.60;;;;;;;4.08;80.65;102179.28;5086762;28;20895;-81
2022/01/22 09:41:19;;;;;;;21.90;12.75;;;;;;;4.14;80.19;102184.00;5070351;28;20439;-82
2022/01/22 09:43:44;;;;;;;23.70;12.30;;;;;;;4.05;80.51;102180.41;5086230;28;20402;-82
2022/01/22 09:46:11;;;;;;;22.60;11.97;;;;;;;4.00;80.65;102179.22;5084095;28;20417;-81
2022/01/22 09:48:44;;;;;;;25.13;12.98;;;;;;;4.11;80.28;102171.75;5081315;28;20757;-81
2022/01/22 09:51:11;;;;;;;19.33;12.10;;;;;;;4.06;80.84;102182.09;5079579;28;20966;-82
2022/01/22 09:53:39;;;;;;;22.40;12.88;;;;;;;4.06;80.53;102186.63;5086407;28;20448;-82
2022/01/22 09:56:05;;;;;;;21.17;12.33;;;;;;;4.13;80.51;102185.00;5080220;28;20399;-81
2022/01/22 09:58:31;;;;;;;21.40;12.67;;;;;;;4.02;80.97;102194.16;5077732;28;20402;-81
2022/01/22 10:01:17;;;;;;;25.77;12.45;;;;;;;3.99;81.06;102194.47;5071870;28;20419;-81
2022/01/22 10:03:43;;;;;;;24.10;12.73;;;;;;;4.11;80.44;102197.75;5080883;28;20430;-80
2022/01/22 10:06:17;;;;;;;25.77;12.67;;;;;;;4.23;80.20;102195.59;5089950;28;20402;-81
2022/01/22 10:08:46;;;;;;;22.25;12.27;;;;;;;4.23;79.59;102185.72;5085890;28;20394;-81
2022/01/22 10:11:19;;;;;;;24.38;12.98;;;;;;;4.19;80.11;102192.38;5085345;28;20394;-81
2022/01/22 10:13:53;;;;;;;20.77;12.00;;;;;;;4.32;79.91;102195.47;5083916;28;20398;-81
2022/01/22 10:16:20;;;;;;;21.92;11.93;;;;;;;4.32;79.61;102200.00;5079655;28;20764;-81
2022/01/22 10:19:06;;;;;;;22.23;12.60;;;;;;;4.28;79.96;102193.28;5080977;28;20410;-81
2022/01/22 10:21:31;;;;;;;17.80;11.37;;;;;;;4.28;79.50;102190.59;5106354;27;20416;-81
2022/01/22 10:24:29;;;;;;;23.52;12.57;;;;;;;4.33;79.39;102189.09;5079871;28;20397;-81
2022/01/22 10:30:10;;;;;;;24.07;13.77;;;;;;;4.14;80.60;102200.94;5086990;28;20489;-81
2022/01/22 10:35:05;;;;;;;20.80;12.90;;;;;;;4.30;79.53;102197.47;5085111;28;20395;-81
2022/01/22 10:37:30;;;;;;;24.48;12.82;;;;;;;4.30;79.79;102205.53;5075136;28;20438;-82
2022/01/22 10:40:18;;;;;;;24.80;12.15;;;;;;;4.19;80.06;102206.66;5076837;28;20498;-82
2022/01/22 10:42:44;;;;;;;24.38;12.90;;;;;;;4.24;79.99;102203.50;5081563;28;20496;-81
2022/01/22 10:45:13;;;;;;;19.90;12.52;;;;;;;4.38;79.20;102197.50;5077955;28;20963;-81
2022/01/22 10:47:38;;;;;;;20.02;12.77;;;;;;;4.47;78.49;102193.84;5089321;28;20402;-81
2022/01/22 10:50:20;;;;;;;19.23;12.55;;;;;;;4.31;79.19;102185.75;5076364;28;20402;-82
2022/01/22 10:52:55;;;;;;;21.97;13.17;;;;;;;4.28;79.45;102191.41;5079903;28;20401;-81
2022/01/22 10:55:20;;;;;;;23.48;13.43;;;;;;;4.25;79.54;102185.56;5078857;28;20785;-82
2022/01/22 10:58:07;;;;;;;21.97;12.17;;;;;;;4.37;79.27;102190.47;5084758;28;20416;-82
2022/01/22 11:00:32;;;;;;;23.35;12.65;;;;;;;4.32;79.20;102183.88;5088408;28;20759;-82
2022/01/22 11:02:58;;;;;;;23.00;12.93;;;;;;;4.23;79.25;102182.19;5079640;28;20402;-82
2022/01/22 11:05:35;;;;;;;23.05;13.48;;;;;;;4.28;79.54;102171.81;5083566;28;20394;-81
2022/01/22 11:08:14;;;;;;;22.13;12.60;;;;;;;4.39;78.91;102168.81;5086071;28;20443;-81
2022/01/22 11:10:40;;;;;;;18.35;11.20;;;;;;;4.53;78.20;102170.88;5077356;28;20400;-82
2022/01/22 11:13:06;;;;;;;25.25;12.55;;;;;;;4.64;77.66;102174.09;5087252;28;20494;-84
2022/01/22 11:15:31;;;;;;;23.23;13.87;;;;;;;4.65;78.08;102175.78;5088527;28;20500;-83
2022/01/22 11:18:01;;;;;;;22.47;13.10;;;;;;;4.58;78.39;102168.53;5087155;28;20782;-85
2022/01/22 11:20:27;;;;;;;27.05;14.65;;;;;;;4.59;78.51;102175.59;5076327;28;20414;-80
2022/01/22 11:22:53;;;;;;;23.58;12.95;;;;;;;4.75;77.93;102178.31;5082804;28;20409;-84
2022/01/22 11:25:20;;;;;;;23.57;15.13;;;;;;;4.67;78.11;102170.25;5079426;28;20409;-83
2022/01/22 11:27:47;;;;;;;27.60;14.70;;;;;;;4.71;78.10;102166.22;5087405;28;20802;-85
2022/01/22 11:30:19;;;;;;;24.67;14.95;;;;;;;4.90;77.37;102162.41;5075546;28;20400;-85
2022/01/22 11:32:49;;;;;;;28.85;15.60;;;;;;;4.94;76.87;102175.31;5087226;28;22032;-84
2022/01/22 11:35:22;;;;;;;27.65;16.35;;;;;;;4.91;77.57;102174.78;5074848;28;20411;-84
2022/01/22 11:38:04;;;;;;;25.92;15.57;;;;;;;4.73;78.50;102177.66;5077696;28;20852;-84
2022/01/22 11:40:32;;;;;;;25.25;13.32;;;;;;;4.78;78.06;102177.13;5091014;28;20563;-82
2022/01/22 11:43:13;;;;;;;27.33;17.03;;;;;;;4.83;77.71;102174.81;5090702;28;20402;-83
2022/01/22 11:45:52;;;;;;;29.55;16.85;;;;;;;4.55;78.62;102174.22;5081041;28;20398;-85
2022/01/22 11:48:27;;;;;;;26.83;15.33;;;;;;;4.70;79.19;102180.66;5080351;28;20488;-84
2022/01/22 11:50:55;;;;;;;23.88;14.63;;;;;;;4.81;78.46;102183.00;5077023;28;20431;-85
2022/01/22 11:53:25;;;;;;;28.13;16.80;;;;;;;4.92;77.83;102184.53;5083343;28;20395;-82
2022/01/22 11:56:09;;;;;;;22.70;14.25;;;;;;;4.93;77.80;102187.09;5076875;28;20406;-84
2022/01/22 11:58:56;;;;;;;28.73;16.37;;;;;;;4.93;77.79;102183.56;5078420;28;20394;-82
2022/01/22 12:01:40;;;;;;;24.08;14.18;;;;;;;4.92;77.83;102182.69;5079670;28;20406;-82
2022/01/22 12:04:08;;;;;;;21.77;14.57;;;;;;;4.92;77.45;102174.66;5088044;28;20508;-87
2022/01/22 12:06:33;;;;;;;26.75;16.20;;;;;;;4.78;78.73;102175.28;5076962;28;20395;-84
2022/01/22 12:09:15;;;;;;;24.17;15.23;;;;;;;4.81;78.53;102166.91;5073650;28;20469;-85
2022/01/22 12:14:49;;;;;;;24.55;13.90;;;;;;;4.90;78.61;102163.25;5086371;28;20397;-84
2022/01/22 12:17:25;;;;;;;43.15;35.70;;;;;;;4.96;78.01;102170.63;5087398;28;20483;-85
2022/01/22 12:22:47;;;;;;;25.37;15.97;;;;;;;5.07;78.15;102167.59;5084382;28;20619;-84
2022/01/22 12:25:15;;;;;;;29.80;16.33;;;;;;;5.02;78.37;102169.09;5086262;28;20414;-83
2022/01/22 12:27:42;;;;;;;25.48;16.27;;;;;;;5.01;78.11;102170.94;5083833;28;20942;-84
2022/01/22 12:30:11;;;;;;;26.58;15.88;;;;;;;5.08;77.95;102165.75;5088201;28;20449;-84
2022/01/22 12:32:51;;;;;;;30.03;17.07;;;;;;;4.90;78.43;102162.41;5072714;28;20425;-84
2022/01/22 12:35:31;;;;;;;31.63;15.18;;;;;;;5.06;77.99;102165.94;5074256;28;20809;-84
2022/01/22 12:38:53;;;;;;;22.05;14.23;;;;;;;5.10;77.83;102167.25;5073165;28;20441;-84
2022/01/22 12:44:11;;;;;;;22.10;14.20;;;;;;;5.16;77.91;102155.00;5088141;28;20437;-84
2022/01/22 12:46:37;;;;;;;24.77;14.85;;;;;;;5.29;76.89;102146.44;5080706;28;20430;-84
2022/01/22 12:49:06;;;;;;;26.97;15.87;;;;;;;5.40;76.43;102152.28;5082986;28;20472;-82
2022/01/22 12:51:32;;;;;;;26.30;14.57;;;;;;;5.37;76.29;102144.56;5090777;28;20489;-84
2022/01/22 12:54:03;;;;;;;26.37;14.43;;;;;;;5.39;75.93;102141.72;5077096;28;20387;-84
2022/01/22 12:59:06;;;;;;;21.63;14.00;;;;;;;5.39;75.95;102142.56;5086280;28;20382;-84
2022/01/22 13:01:33;;;;;;;22.63;14.23;;;;;;;5.42;75.93;102146.75;5080599;28;20436;-84
2022/01/22 13:04:02;;;;;;;22.42;14.88;;;;;;;5.38;76.59;102143.56;5082334;28;20414;-83
2022/01/22 13:06:50;;;;;;;24.10;15.05;;;;;;;5.29;77.19;102149.97;5085159;28;20392;-83
2022/01/22 13:09:16;;;;;;;25.90;16.23;;;;;;;5.29;77.10;102141.06;5080737;28;20476;-83